Odyssea Defender — WDE7022 — position and weather

sailwx.info

Track history (hours):
 
Tides and Currents Weather Stations Pressure Air Temp Water Temp Dewpoint Dewpoint Depression Visibility Wind Speed Wind Dir Waves Ship Positions

Odyssea Defender

Owner: ODYSSEA VESSEL, INC, BERWICK, LA. More information available from US FCC via Universal Licensing System and Coast Guard Vessel Documentation Center.

Last reported at 2017-Jul-02 10:16 UTC. Time now 2017-Jul-23 04:32 UTC.
Position N 29°39' W 093°20'.
Warning: this ship's position is 20 days out of date.

Length 60 m; draft 3.3 m.

Type: Ship. MMSI: 367387930.

Date/timePositionNaut miles runAvg speedWind from/ knotsBaromVisibWave heightAir tempDewpointWater temp
2017-Jul-02 10:16N 29°39' W 093°20'4 9.4
2017-Jul-02 09:53N 29°43' W 093°20'4 9.6
2017-Jul-02 09:30N 29°46' W 093°21'3 6.1
2017-Jul-02 08:58N 29°49' W 093°21'0 0.5
2017-Jul-02 08:30N 29°49' W 093°20'0 0.0
2017-Jul-02 07:59N 29°49' W 093°20'0 0.0
2017-Jul-02 07:14N 29°49' W 093°20'0 0.1
2017-Jul-02 06:38N 29°49' W 093°20'0 0.0
2017-Jul-02 06:30N 29°49' W 093°20'0 0.0
2017-Jul-02 06:01N 29°49' W 093°20'0 0.0
2017-Jul-02 05:21N 29°49' W 093°20'0 0.0
2017-Jul-02 04:56N 29°49' W 093°20'0 0.0
2017-Jul-02 04:30N 29°49' W 093°20'0 0.1
2017-Jul-02 03:59N 29°49' W 093°20'2 3.4
2017-Jul-02 03:31N 29°48' W 093°21'1 0.1
2017-Jul-01 18:02N 29°47' W 093°20'1 3.3
2017-Jul-01 17:48N 29°46' W 093°21'1 0.1
2017-Jul-01 05:46N 29°47' W 093°20'1 2.8
2017-Jul-01 05:30N 29°47' W 093°21'2 4.6
2017-Jul-01 05:00N 29°49' W 093°21'2 4.0
2017-Jul-01 04:30N 29°47' W 093°21'  
2017-Jun-25 17:48N 29°33' W 092°18'0 1.2
2017-Jun-25 17:29N 29°33' W 092°18'2 3.2
2017-Jun-25 17:01N 29°35' W 092°18'3 6.0
2017-Jun-25 16:30N 29°37' W 092°16'3 5.6
2017-Jun-25 16:00N 29°40' W 092°15'4 7.2
2017-Jun-25 15:31N 29°44' W 092°15'3 6.6
2017-Jun-25 15:01N 29°46' W 092°12'3 3.4
2017-Jun-25 14:01N 29°48' W 092°09'0 0.0
2017-Jun-25 13:31N 29°48' W 092°09'0 0.0
2017-Jun-25 13:00N 29°48' W 092°09'0 0.0
2017-Jun-25 12:30N 29°48' W 092°09'1 1.6
2017-Jun-25 12:01N 29°47' W 092°09'1 2.5
2017-Jun-25 11:31N 29°47' W 092°10'0 0.0
2017-Jun-25 11:00N 29°47' W 092°10'0 0.0
2017-Jun-25 10:31N 29°47' W 092°10'0 0.0
2017-Jun-25 10:00N 29°47' W 092°10'0 0.0
2017-Jun-25 09:31N 29°47' W 092°10'0 0.0
2017-Jun-25 09:00N 29°47' W 092°10'0 0.0
2017-Jun-25 08:30N 29°47' W 092°10'0 0.0
2017-Jun-25 08:01N 29°47' W 092°10'0 0.0
2017-Jun-25 07:31N 29°47' W 092°10'0 0.0
2017-Jun-25 07:00N 29°47' W 092°10'2 3.4
2017-Jun-25 06:30N 29°45' W 092°12'4 7.2
2017-Jun-25 06:01N 29°43' W 092°15'4 7.3
2017-Jun-25 05:30N 29°39' W 092°16'3 5.9
2017-Jun-25 05:00N 29°37' W 092°17'3 5.9
2017-Jun-25 04:31N 29°34' W 092°18'1 1.4
2017-Jun-25 04:01N 29°33' W 092°18'1 1.0
2017-Jun-25 03:21N 29°32' W 092°18'54 6.5
2017-Jun-24 18:58N 29°41' W 093°20'4 8.6
2017-Jun-24 18:30N 29°45' W 093°21'4 7.6
2017-Jun-24 18:01N 29°49' W 093°21'1 1.1
2017-Jun-24 17:30N 29°49' W 093°20'0 0.0
2017-Jun-24 17:00N 29°49' W 093°20'0 0.0
2017-Jun-24 16:31N 29°49' W 093°20'0 0.0
2017-Jun-24 16:01N 29°49' W 093°20'0 0.0
2017-Jun-24 15:31N 29°49' W 093°20'0 0.0
2017-Jun-24 15:01N 29°49' W 093°20'0 0.0
2017-Jun-24 14:01N 29°49' W 093°20'0 0.8
2017-Jun-24 13:28N 29°49' W 093°21'2 1.1
2017-Jun-24 11:22N 29°47' W 093°20'0 0.0
2017-Jun-24 10:55N 29°47' W 093°20'0 0.0
2017-Jun-24 10:30N 29°47' W 093°20'0 0.0
2017-Jun-24 09:59N 29°47' W 093°20'0 0.0
2017-Jun-24 09:29N 29°47' W 093°20'0 0.0
2017-Jun-24 08:56N 29°47' W 093°20'0 0.0
2017-Jun-24 08:24N 29°47' W 093°20'0 0.0
2017-Jun-24 07:48N 29°47' W 093°20'0 0.0
2017-Jun-24 07:26N 29°47' W 093°20'0 0.0
2017-Jun-24 06:58N 29°47' W 093°20'0 0.0
2017-Jun-24 06:27N 29°47' W 093°20'0 0.0
2017-Jun-24 02:39N 29°47' W 093°20'0 0.3
2017-Jun-24 02:30N 29°47' W 093°20'1 2.0
2017-Jun-24 02:01N 29°47' W 093°21'2 4.1
2017-Jun-24 01:31N 29°49' W 093°20'1 1.7
2017-Jun-24 01:01N 29°49' W 093°21'2 3.9
2017-Jun-24 00:29N 29°46' W 093°21'1 2.3
2017-Jun-23 23:57N 29°47' W 093°20'1 2.9
2017-Jun-23 23:30N 29°46' W 093°21'3 5.8
2017-Jun-23 23:00N 29°49' W 093°21'0 0.7
2017-Jun-23 22:30N 29°49' W 093°20'0 0.0
2017-Jun-23 22:01N 29°49' W 093°20'0 0.0
2017-Jun-23 21:30N 29°49' W 093°20'0 0.0
2017-Jun-23 20:40N 29°49' W 093°20'0 0.0
2017-Jun-23 20:30N 29°49' W 093°20'0 0.0
2017-Jun-23 19:59N 29°49' W 093°20'1 1.1
2017-Jun-23 19:30N 29°49' W 093°21'3 5.0
2017-Jun-23 19:00N 29°47' W 093°21'  
Track history (hours):
 
Tides and Currents Weather Stations Pressure Air Temp Water Temp Dewpoint Dewpoint Depression Visibility Wind Speed Wind Dir Waves Ship Positions

Odyssea Defender

Owner: ODYSSEA VESSEL, INC, BERWICK, LA. More information available from US FCC via Universal Licensing System and Coast Guard Vessel Documentation Center.

Last reported at 2017-Jul-02 10:16 UTC. Time now 2017-Jul-23 04:32 UTC.
Position N 29°39' W 093°20'.
Warning: this ship's position is 20 days out of date.

Length 60 m; draft 3.3 m.

Type: Ship. MMSI: 367387930.

Date/timePositionNaut miles runAvg speedWind from/ knotsBaromVisibWave heightAir tempDewpointWater temp
2017-Jul-02 10:16N 29°39' W 093°20'4 9.4
2017-Jul-02 09:53N 29°43' W 093°20'4 9.6
2017-Jul-02 09:30N 29°46' W 093°21'3 6.1
2017-Jul-02 08:58N 29°49' W 093°21'0 0.5
2017-Jul-02 08:30N 29°49' W 093°20'0 0.0
2017-Jul-02 07:59N 29°49' W 093°20'0 0.0
2017-Jul-02 07:14N 29°49' W 093°20'0 0.1
2017-Jul-02 06:38N 29°49' W 093°20'0 0.0
2017-Jul-02 06:30N 29°49' W 093°20'0 0.0
2017-Jul-02 06:01N 29°49' W 093°20'0 0.0
2017-Jul-02 05:21N 29°49' W 093°20'0 0.0
2017-Jul-02 04:56N 29°49' W 093°20'0 0.0
2017-Jul-02 04:30N 29°49' W 093°20'0 0.1
2017-Jul-02 03:59N 29°49' W 093°20'2 3.4
2017-Jul-02 03:31N 29°48' W 093°21'1 0.1
2017-Jul-01 18:02N 29°47' W 093°20'1 3.3
2017-Jul-01 17:48N 29°46' W 093°21'1 0.1
2017-Jul-01 05:46N 29°47' W 093°20'1 2.8
2017-Jul-01 05:30N 29°47' W 093°21'2 4.6
2017-Jul-01 05:00N 29°49' W 093°21'2 4.0
2017-Jul-01 04:30N 29°47' W 093°21'  
2017-Jun-25 17:48N 29°33' W 092°18'0 1.2
2017-Jun-25 17:29N 29°33' W 092°18'2 3.2
2017-Jun-25 17:01N 29°35' W 092°18'3 6.0
2017-Jun-25 16:30N 29°37' W 092°16'3 5.6
2017-Jun-25 16:00N 29°40' W 092°15'4 7.2
2017-Jun-25 15:31N 29°44' W 092°15'3 6.6
2017-Jun-25 15:01N 29°46' W 092°12'3 3.4
2017-Jun-25 14:01N 29°48' W 092°09'0 0.0
2017-Jun-25 13:31N 29°48' W 092°09'0 0.0
2017-Jun-25 13:00N 29°48' W 092°09'0 0.0
2017-Jun-25 12:30N 29°48' W 092°09'1 1.6
2017-Jun-25 12:01N 29°47' W 092°09'1 2.5
2017-Jun-25 11:31N 29°47' W 092°10'0 0.0
2017-Jun-25 11:00N 29°47' W 092°10'0 0.0
2017-Jun-25 10:31N 29°47' W 092°10'0 0.0
2017-Jun-25 10:00N 29°47' W 092°10'0 0.0
2017-Jun-25 09:31N 29°47' W 092°10'0 0.0
2017-Jun-25 09:00N 29°47' W 092°10'0 0.0
2017-Jun-25 08:30N 29°47' W 092°10'0 0.0
2017-Jun-25 08:01N 29°47' W 092°10'0 0.0
2017-Jun-25 07:31N 29°47' W 092°10'0 0.0
2017-Jun-25 07:00N 29°47' W 092°10'2 3.4
2017-Jun-25 06:30N 29°45' W 092°12'4 7.2
2017-Jun-25 06:01N 29°43' W 092°15'4 7.3
2017-Jun-25 05:30N 29°39' W 092°16'3 5.9
2017-Jun-25 05:00N 29°37' W 092°17'3 5.9
2017-Jun-25 04:31N 29°34' W 092°18'1 1.4
2017-Jun-25 04:01N 29°33' W 092°18'1 1.0
2017-Jun-25 03:21N 29°32' W 092°18'54 6.5
2017-Jun-24 18:58N 29°41' W 093°20'4 8.6
2017-Jun-24 18:30N 29°45' W 093°21'4 7.6
2017-Jun-24 18:01N 29°49' W 093°21'1 1.1
2017-Jun-24 17:30N 29°49' W 093°20'0 0.0
2017-Jun-24 17:00N 29°49' W 093°20'0 0.0
2017-Jun-24 16:31N 29°49' W 093°20'0 0.0
2017-Jun-24 16:01N 29°49' W 093°20'0 0.0
2017-Jun-24 15:31N 29°49' W 093°20'0 0.0
2017-Jun-24 15:01N 29°49' W 093°20'0 0.0
2017-Jun-24 14:01N 29°49' W 093°20'0 0.8
2017-Jun-24 13:28N 29°49' W 093°21'2 1.1
2017-Jun-24 11:22N 29°47' W 093°20'0 0.0
2017-Jun-24 10:55N 29°47' W 093°20'0 0.0
2017-Jun-24 10:30N 29°47' W 093°20'0 0.0
2017-Jun-24 09:59N 29°47' W 093°20'0 0.0
2017-Jun-24 09:29N 29°47' W 093°20'0 0.0
2017-Jun-24 08:56N 29°47' W 093°20'0 0.0
2017-Jun-24 08:24N 29°47' W 093°20'0 0.0
2017-Jun-24 07:48N 29°47' W 093°20'0 0.0
2017-Jun-24 07:26N 29°47' W 093°20'0 0.0
2017-Jun-24 06:58N 29°47' W 093°20'0 0.0
2017-Jun-24 06:27N 29°47' W 093°20'0 0.0
2017-Jun-24 02:39N 29°47' W 093°20'0 0.3
2017-Jun-24 02:30N 29°47' W 093°20'1 2.0
2017-Jun-24 02:01N 29°47' W 093°21'2 4.1
2017-Jun-24 01:31N 29°49' W 093°20'1 1.7
2017-Jun-24 01:01N 29°49' W 093°21'2 3.9
2017-Jun-24 00:29N 29°46' W 093°21'1 2.3
2017-Jun-23 23:57N 29°47' W 093°20'1 2.9
2017-Jun-23 23:30N 29°46' W 093°21'3 5.8
2017-Jun-23 23:00N 29°49' W 093°21'0 0.7
2017-Jun-23 22:30N 29°49' W 093°20'0 0.0
2017-Jun-23 22:01N 29°49' W 093°20'0 0.0
2017-Jun-23 21:30N 29°49' W 093°20'0 0.0
2017-Jun-23 20:40N 29°49' W 093°20'0 0.0
2017-Jun-23 20:30N 29°49' W 093°20'0 0.0
2017-Jun-23 19:59N 29°49' W 093°20'1 1.1
2017-Jun-23 19:30N 29°49' W 093°21'3 5.0
2017-Jun-23 19:00N 29°47' W 093°21'  

Dump ship's entire track history